Apalachia Observed Data For Previous 48 Hours

Caption
Day and Hour Reservoir Elevation (behind dam)* Tailwater Elevation (below dam)* Average Hourly Discharge*
8/19/2017 2 AM EDT 1,277.77 837.71 102
8/19/2017 3 AM EDT 1,277.61 837.61 683
8/19/2017 4 AM EDT 1,277.22 837.59 55
8/19/2017 5 AM EDT 1,276.96 837.59 55
8/19/2017 6 AM EDT 1,276.75 837.69 59
8/19/2017 7 AM EDT 1,276.39 837.62 683
8/19/2017 8 AM EDT 1,276.03 837.59 55
8/19/2017 9 AM EDT 1,275.78 837.59 55
8/19/2017 10 AM EDT 1,275.53 837.74 61
8/19/2017 11 AM EDT 1,275.10 839.58 1,473
8/19/2017 12 PM EDT 1,274.81 840.56 2,857
8/19/2017 1 PM EDT 1,274.59 840.57 2,868
8/19/2017 2 PM EDT 1,274.83 840.56 2,871
8/19/2017 3 PM EDT 1,275.22 840.57 2,857
8/19/2017 4 PM EDT 1,275.78 840.56 2,869
8/19/2017 5 PM EDT 1,276.17 840.56 2,858
8/19/2017 6 PM EDT 1,276.50 840.57 2,868
8/19/2017 7 PM EDT 1,276.96 840.57 2,858
8/19/2017 8 PM EDT 1,277.51 839.53 1,525
8/19/2017 9 PM EDT 1,277.97 839.51 1,472
8/19/2017 10 PM EDT 1,278.00 839.52 1,472
8/19/2017 11 PM EDT 1,277.86 839.51 1,471
8/20/2017 12 AM EDT 1,277.75 837.59 97
8/20/2017 1 AM EDT 1,277.75 837.58 55
8/20/2017 2 AM EDT 1,277.80 837.84 68
8/20/2017 3 AM EDT 1,277.47 837.61 689
8/20/2017 4 AM EDT 1,277.25 837.58 55
8/20/2017 5 AM EDT 1,276.99 837.58 55
8/20/2017 6 AM EDT 1,276.66 837.65 59
8/20/2017 7 AM EDT 1,276.30 837.61 684
8/20/2017 8 AM EDT 1,276.03 837.58 55
8/20/2017 9 AM EDT 1,275.77 837.58 55
8/20/2017 10 AM EDT 1,275.45 837.68 59
8/20/2017 11 AM EDT 1,275.04 839.62 1,479
8/20/2017 12 PM EDT 1,274.84 840.57 2,861
8/20/2017 1 PM EDT 1,274.76 840.57 2,871
8/20/2017 2 PM EDT 1,275.00 840.56 2,868
8/20/2017 3 PM EDT 1,275.42 840.57 2,874
8/20/2017 4 PM EDT 1,275.93 840.57 2,870
8/20/2017 5 PM EDT 1,276.32 840.58 2,872
8/20/2017 6 PM EDT 1,276.65 840.57 2,869
8/20/2017 7 PM EDT 1,277.11 840.57 2,870
8/20/2017 8 PM EDT 1,277.61 839.52 1,545
8/20/2017 9 PM EDT 1,277.72 837.59 104
8/20/2017 10 PM EDT 1,277.69 837.58 55
8/20/2017 11 PM EDT 1,277.56 837.88 73
8/21/2017 12 AM EDT 1,277.53 837.60 687
8/21/2017 1 AM EDT 1,277.60 837.57 55
8/21/2017 2 AM EDT 1,277.32 837.57 55
8/21/2017 3 AM EDT 1,276.87 837.84 69
8/21/2017 4 AM EDT 1,276.59 837.60 690
8/21/2017 5 AM EDT 1,276.38 837.57 55
8/21/2017 6 AM EDT 1,276.03 837.57 55
8/21/2017 7 AM EDT 1,275.73 837.65 59
8/21/2017 8 AM EDT 1,275.66 839.52 1,472
8/21/2017 9 AM EDT 1,275.41 839.52 1,476
8/21/2017 10 AM EDT 1,275.26 839.53 1,474
8/21/2017 11 AM EDT 1,275.16 839.56 1,474
8/21/2017 12 PM EDT 1,275.56 840.56 2,850
8/21/2017 1 PM EDT 1,276.16 840.57 2,875
8/21/2017 2 PM EDT 1,276.51 840.57 2,872
8/21/2017 3 PM EDT 1,276.88 840.57 2,871
8/21/2017 4 PM EDT 1,277.31 840.57 2,876
8/21/2017 5 PM EDT 1,277.74 840.57 2,880
8/21/2017 6 PM EDT 1,278.13 840.57 2,874
8/21/2017 7 PM EDT 1,278.51 840.56 2,866
8/21/2017 8 PM EDT 1,278.38 840.57 2,864
8/21/2017 9 PM EDT 1,278.22 840.56 2,872

Elevations are in feet above sea level. Discharges are in cubic feet per second and are reported at the end of the hour.